createdAt,value
2022-07-29T00:03:18.622Z,19.13
2022-07-29T00:08:21.795Z,19.19
2022-07-29T00:13:31.829Z,19.17
2022-07-29T00:18:35.882Z,19.17
2022-07-29T00:23:38.851Z,19.24
2022-07-29T00:28:43.169Z,19.26
2022-07-29T00:33:46.138Z,19.17
2022-07-29T00:38:49.198Z,19.10
2022-07-29T00:43:53.498Z,19.02
2022-07-29T00:48:56.533Z,19.00
2022-07-29T00:53:59.622Z,18.97
2022-07-29T00:59:03.924Z,18.87
2022-07-29T01:04:07.911Z,18.93
2022-07-29T01:09:11.997Z,18.80
2022-07-29T01:14:16.935Z,18.92
2022-07-29T01:19:37.784Z,18.93
2022-07-29T01:24:53.828Z,18.76
2022-07-29T01:30:00.245Z,18.81
2022-07-29T01:35:05.157Z,18.82
2022-07-29T01:40:11.714Z,18.78
2022-07-29T01:45:18.045Z,18.82
2022-07-29T01:50:22.656Z,18.73
2022-07-29T01:55:28.987Z,18.54
2022-07-29T02:00:34.364Z,18.60
2022-07-29T02:05:37.975Z,18.48
2022-07-29T02:10:41.793Z,18.52
2022-07-29T02:15:46.708Z,18.54
2022-07-29T02:20:51.201Z,18.35
2022-07-29T02:25:55.472Z,18.30
2022-07-29T02:31:01.677Z,18.04
2022-07-29T02:36:05.233Z,18.13
2022-07-29T02:41:12.382Z,18.19
2022-07-29T02:46:28.429Z,18.18
2022-07-29T02:51:44.058Z,18.16
2022-07-29T02:56:48.576Z,17.96
2022-07-29T03:01:53.255Z,17.86
2022-07-29T03:06:57.159Z,17.80
2022-07-29T03:12:00.114Z,18.02
2022-07-29T03:17:04.716Z,18.12
2022-07-29T03:22:07.990Z,18.12
2022-07-29T03:27:11.031Z,18.06
2022-07-29T03:32:15.322Z,18.12
2022-07-29T03:37:26.906Z,17.94
2022-07-29T03:42:34.424Z,17.93
2022-07-29T03:47:50.212Z,17.96
2022-07-29T03:52:54.454Z,17.88
2022-07-29T03:57:59.694Z,17.99
2022-07-29T04:03:05.784Z,17.97
2022-07-29T04:08:13.734Z,17.97
2022-07-29T04:13:16.691Z,17.97
2022-07-29T04:18:20.986Z,17.97
2022-07-29T04:23:24.079Z,18.00
2022-07-29T04:28:27.161Z,18.08
2022-07-29T04:33:31.467Z,18.02
2022-07-29T04:38:34.425Z,18.06
2022-07-29T04:43:37.949Z,18.21
2022-07-29T04:48:42.280Z,18.15
2022-07-29T04:53:45.328Z,18.05
2022-07-29T04:58:48.553Z,18.25
2022-07-29T05:03:57.033Z,18.30
2022-07-29T05:09:02.924Z,18.39
2022-07-29T05:14:06.055Z,18.45
2022-07-29T05:19:14.114Z,18.47
2022-07-29T05:24:17.671Z,18.56
2022-07-29T05:29:43.960Z,18.57
2022-07-29T05:34:50.877Z,18.66
2022-07-29T05:39:59.028Z,18.70
2022-07-29T05:45:02.379Z,18.69
2022-07-29T05:50:07.733Z,18.76
2022-07-29T05:55:11.083Z,18.85
2022-07-29T06:00:14.340Z,18.88
2022-07-29T06:05:18.842Z,18.93
2022-07-29T06:10:23.932Z,19.00
2022-07-29T06:15:29.264Z,19.09
2022-07-29T06:20:34.032Z,19.11
2022-07-29T06:25:37.766Z,19.22
2022-07-29T06:30:41.050Z,19.27
2022-07-29T06:35:45.991Z,19.34
2022-07-29T06:41:03.101Z,19.41
2022-07-29T06:46:07.092Z,19.49
2022-07-29T06:51:12.429Z,19.58
2022-07-29T06:56:15.365Z,19.68
2022-07-29T07:01:18.447Z,19.75
2022-07-29T07:06:22.761Z,19.78
2022-07-29T07:11:25.775Z,19.82
2022-07-29T07:16:28.771Z,19.92
2022-07-29T07:21:34.516Z,20.01
2022-07-29T07:26:40.439Z,20.10
2022-07-29T07:31:43.433Z,20.19
2022-07-29T07:36:47.789Z,20.26
2022-07-29T07:41:50.758Z,20.32
2022-07-29T07:46:54.642Z,20.39
2022-07-29T07:51:59.138Z,20.47
2022-07-29T07:57:02.211Z,20.50
2022-07-29T08:02:05.339Z,20.60
2022-07-29T08:07:10.131Z,20.66
2022-07-29T08:12:13.109Z,20.77
2022-07-29T08:17:16.159Z,20.85
2022-07-29T08:22:20.798Z,20.95
2022-07-29T08:27:42.337Z,20.99
2022-07-29T08:32:54.775Z,21.16
2022-07-29T08:38:00.186Z,21.38
2022-07-29T08:43:08.457Z,21.56
2022-07-29T08:48:11.412Z,21.72
2022-07-29T08:53:17.065Z,21.85
2022-07-29T08:58:23.209Z,22.02
2022-07-29T09:03:31.672Z,22.10
2022-07-29T09:08:36.063Z,22.30
2022-07-29T09:13:39.017Z,22.43
2022-07-29T09:18:43.157Z,22.71
2022-07-29T09:29:15.979Z,23.22
2022-07-29T09:34:19.443Z,23.09
2022-07-29T09:39:30.202Z,23.09
2022-07-29T09:44:49.083Z,23.30
2022-07-29T09:49:52.871Z,23.70
2022-07-29T09:55:06.032Z,24.01
2022-07-29T10:00:11.653Z,24.27
2022-07-29T10:05:21.869Z,25.09
2022-07-29T10:10:25.664Z,28.04
2022-07-29T10:15:31.026Z,25.67
2022-07-29T10:20:34.063Z,25.42
2022-07-29T10:25:37.204Z,24.88
2022-07-29T10:30:42.139Z,24.47
2022-07-29T10:35:58.543Z,24.96
2022-07-29T10:41:25.386Z,25.14
2022-07-29T10:46:36.137Z,25.30
2022-07-29T10:51:58.551Z,25.15
2022-07-29T10:57:12.308Z,25.65
2022-07-29T11:02:46.463Z,25.64
2022-07-29T11:08:08.443Z,25.39
2022-07-29T11:13:12.832Z,25.48
2022-07-29T11:18:17.498Z,25.90
2022-07-29T11:23:22.397Z,25.93
2022-07-29T11:28:26.779Z,25.99
2022-07-29T11:33:54.071Z,26.01
2022-07-29T11:38:53.758Z,25.98
2022-07-29T11:43:58.689Z,26.14
2022-07-29T11:49:02.309Z,26.32
2022-07-29T11:54:15.743Z,26.88
2022-07-29T11:59:21.388Z,27.95
2022-07-29T12:04:25.556Z,28.62
2022-07-29T12:09:29.237Z,29.37
2022-07-29T12:14:47.466Z,28.92
2022-07-29T12:19:50.991Z,29.21
2022-07-29T12:25:02.176Z,28.33
2022-07-29T12:30:18.588Z,29.26
2022-07-29T12:35:22.186Z,29.43
2022-07-29T12:40:25.234Z,28.80
2022-07-29T12:45:32.120Z,27.83
2022-07-29T12:50:35.117Z,27.20
2022-07-29T12:55:42.022Z,26.92
2022-07-29T13:00:46.410Z,26.95
2022-07-29T13:05:51.505Z,27.33
2022-07-29T13:10:54.521Z,27.47
2022-07-29T13:16:09.402Z,27.28
2022-07-29T13:21:13.094Z,27.09
2022-07-29T13:26:17.346Z,27.05
2022-07-29T13:31:21.919Z,26.68
2022-07-29T13:36:24.881Z,26.54
2022-07-29T13:41:27.848Z,26.54
2022-07-29T13:46:32.230Z,26.36
2022-07-29T13:51:35.277Z,26.54
2022-07-29T13:56:38.280Z,26.84
2022-07-29T14:01:43.259Z,27.63
2022-07-29T14:06:46.240Z,27.34
2022-07-29T14:11:51.247Z,27.76
2022-07-29T14:16:58.652Z,27.44
2022-07-29T14:22:01.702Z,27.05
2022-07-29T14:27:05.970Z,27.47
2022-07-29T14:32:11.575Z,27.46
2022-07-29T14:37:16.089Z,27.07
2022-07-29T14:42:19.212Z,26.74
2022-07-29T14:47:24.469Z,26.71
2022-07-29T14:52:27.503Z,26.76
2022-07-29T14:57:30.631Z,26.87
2022-07-29T15:02:59.205Z,26.93
2022-07-29T15:07:58.113Z,27.08
2022-07-29T15:13:01.086Z,27.17
2022-07-29T15:18:05.694Z,27.06
2022-07-29T15:23:10.517Z,26.92
2022-07-29T15:28:13.506Z,26.82
2022-07-29T15:33:17.957Z,26.74
2022-07-29T15:38:20.913Z,26.60
2022-07-29T15:43:32.044Z,26.46
2022-07-29T15:48:39.472Z,26.36
2022-07-29T15:53:42.462Z,26.04
2022-07-29T15:58:45.470Z,25.89
2022-07-29T16:03:49.879Z,25.72
2022-07-29T16:08:55.835Z,25.59
2022-07-29T16:13:59.482Z,25.46
2022-07-29T16:19:04.039Z,25.32
2022-07-29T16:24:07.726Z,25.24
2022-07-29T16:29:10.718Z,25.09
2022-07-29T16:34:15.067Z,24.94
2022-07-29T16:39:18.126Z,24.82
2022-07-29T16:44:21.112Z,24.72
2022-07-29T16:49:29.563Z,24.65
2022-07-29T16:54:32.641Z,24.56
2022-07-29T16:59:35.701Z,24.48
2022-07-29T17:04:47.979Z,24.41
2022-07-29T17:09:55.353Z,24.35
2022-07-29T17:14:59.005Z,24.29
2022-07-29T17:20:03.500Z,24.22
2022-07-29T17:25:07.193Z,24.19
2022-07-29T17:30:10.565Z,24.19
2022-07-29T17:35:32.404Z,24.11
2022-07-29T17:40:35.381Z,24.05
2022-07-29T17:45:48.709Z,23.96
2022-07-29T17:50:55.432Z,23.87
2022-07-29T17:55:59.141Z,23.78
2022-07-29T18:01:04.395Z,23.69
2022-07-29T18:06:10.502Z,23.61
2022-07-29T18:11:14.869Z,23.50
2022-07-29T18:16:18.537Z,23.44
2022-07-29T18:21:42.576Z,23.33
2022-07-29T18:26:46.625Z,23.24
2022-07-29T18:31:50.187Z,23.23
2022-07-29T18:36:54.968Z,23.14
2022-07-29T18:41:58.097Z,23.03
2022-07-29T18:47:01.547Z,22.97
2022-07-29T18:52:07.058Z,22.91
2022-07-29T18:57:53.308Z,22.85
2022-07-29T19:02:34.100Z,22.74
2022-07-29T19:07:38.624Z,22.63
2022-07-29T19:12:41.670Z,22.56
2022-07-29T19:17:46.410Z,22.47
2022-07-29T19:22:50.745Z,22.42
2022-07-29T19:27:53.727Z,22.31
2022-07-29T19:32:56.784Z,22.28
2022-07-29T19:38:02.086Z,22.22
2022-07-29T19:43:49.627Z,22.17
2022-07-29T19:48:28.185Z,22.16
2022-07-29T19:53:32.975Z,22.12
2022-07-29T19:58:36.105Z,22.06
2022-07-29T20:03:39.936Z,21.98
2022-07-29T20:08:45.297Z,21.95
2022-07-29T20:13:48.268Z,21.92
2022-07-29T20:18:51.231Z,21.90
2022-07-29T20:23:56.853Z,21.74
2022-07-29T20:28:59.860Z,21.71
2022-07-29T20:34:02.944Z,21.56
2022-07-29T20:39:07.274Z,21.54
2022-07-29T20:44:10.267Z,21.44
2022-07-29T20:49:13.364Z,21.35
2022-07-29T20:54:17.759Z,21.31
2022-07-29T20:59:20.791Z,21.35
2022-07-29T21:04:30.623Z,21.25
2022-07-29T21:09:35.372Z,21.19
2022-07-29T21:14:48.096Z,21.15
2022-07-29T21:19:52.651Z,21.04
2022-07-29T21:24:57.151Z,21.08
2022-07-29T21:30:00.135Z,21.21
2022-07-29T21:35:03.297Z,21.17
2022-07-29T21:40:19.702Z,21.18
2022-07-29T21:45:22.702Z,21.16
2022-07-29T21:50:25.937Z,21.14
2022-07-29T21:55:31.111Z,21.06
2022-07-29T22:00:36.143Z,21.03
2022-07-29T22:05:39.135Z,21.01
2022-07-29T22:10:43.443Z,20.97
2022-07-29T22:15:47.249Z,20.97
2022-07-29T22:20:50.461Z,20.87
2022-07-29T22:25:54.771Z,20.93
2022-07-29T22:30:57.872Z,20.86
2022-07-29T22:36:00.935Z,20.84
2022-07-29T22:41:05.271Z,20.82
2022-07-29T22:46:09.337Z,20.74
2022-07-29T22:51:12.315Z,20.77
2022-07-29T22:56:16.758Z,20.74
2022-07-29T23:01:37.318Z,20.74
2022-07-29T23:06:41.379Z,20.81
2022-07-29T23:11:46.202Z,20.81
2022-07-29T23:16:49.246Z,20.82
2022-07-29T23:21:52.290Z,20.79
2022-07-29T23:26:56.620Z,20.78
2022-07-29T23:31:59.725Z,20.76
2022-07-29T23:37:03.088Z,20.76
2022-07-29T23:42:07.786Z,20.74
2022-07-29T23:47:10.753Z,20.73
2022-07-29T23:52:13.695Z,20.65
2022-07-29T23:57:17.990Z,20.58
